sensor_id;sensor_type;location;lat;lon;timestamp;pressure;altitude;pressure_sealevel;temperature;humidity
10366;BME280;5229;41.820;23.490;2023-09-12T15:42:23;90188.47;;;23.11;30.99
10366;BME280;5229;41.820;23.490;2023-09-12T15:44:49;90181.66;;;23.03;31.75
10366;BME280;5229;41.820;23.490;2023-09-12T15:47:16;90193.34;;;22.98;31.94
10366;BME280;5229;41.820;23.490;2023-09-12T15:49:43;90190.69;;;22.88;32.02
10366;BME280;5229;41.820;23.490;2023-09-12T15:52:10;90189.91;;;22.80;33.24
10366;BME280;5229;41.820;23.490;2023-09-12T15:54:36;90194.38;;;22.69;33.47
10366;BME280;5229;41.820;23.490;2023-09-12T15:57:04;90193.22;;;22.59;34.54
10366;BME280;5229;41.820;23.490;2023-09-12T15:59:33;90192.69;;;22.43;34.28
10366;BME280;5229;41.820;23.490;2023-09-12T16:02:00;90193.03;;;22.31;34.46
10366;BME280;5229;41.820;23.490;2023-09-12T16:04:27;90186.53;;;22.18;34.50
10366;BME280;5229;41.820;23.490;2023-09-12T16:06:54;90190.25;;;22.10;34.25
10366;BME280;5229;41.820;23.490;2023-09-12T16:09:21;90199.63;;;22.04;34.92
10366;BME280;5229;41.820;23.490;2023-09-12T16:11:47;90199.94;;;21.92;34.95
10366;BME280;5229;41.820;23.490;2023-09-12T16:14:15;90191.53;;;21.80;35.43
10366;BME280;5229;41.820;23.490;2023-09-12T16:16:43;90196.69;;;21.66;35.60
10366;BME280;5229;41.820;23.490;2023-09-12T16:19:10;90193.63;;;21.60;35.83
10366;BME280;5229;41.820;23.490;2023-09-12T16:21:37;90195.44;;;21.53;36.06
10366;BME280;5229;41.820;23.490;2023-09-12T16:24:04;90206.31;;;21.48;36.27
10366;BME280;5229;41.820;23.490;2023-09-12T16:26:31;90191.84;;;21.31;36.62
10366;BME280;5229;41.820;23.490;2023-09-12T16:28:58;90211.03;;;21.28;36.29
10366;BME280;5229;41.820;23.490;2023-09-12T16:31:25;90208.34;;;21.21;36.77
10366;BME280;5229;41.820;23.490;2023-09-12T16:33:53;90214.69;;;21.17;37.62
10366;BME280;5229;41.820;23.490;2023-09-12T16:36:19;90224.28;;;20.99;37.58
10366;BME280;5229;41.820;23.490;2023-09-12T16:38:46;90230.53;;;20.87;38.00
10366;BME280;5229;41.820;23.490;2023-09-12T16:41:13;90231.16;;;20.77;38.16
10366;BME280;5229;41.820;23.490;2023-09-12T16:43:40;90233.31;;;20.68;38.33
10366;BME280;5229;41.820;23.490;2023-09-12T16:46:06;90233.88;;;20.55;38.51
10366;BME280;5229;41.820;23.490;2023-09-12T16:48:34;90239.78;;;20.45;38.99
10366;BME280;5229;41.820;23.490;2023-09-12T16:51:02;90233.59;;;20.34;39.20
10366;BME280;5229;41.820;23.490;2023-09-12T16:53:29;90239.50;;;20.24;39.28
10366;BME280;5229;41.820;23.490;2023-09-12T16:55:56;90236.75;;;20.17;39.55
10366;BME280;5229;41.820;23.490;2023-09-12T16:58:24;90245.25;;;20.10;39.42
10366;BME280;5229;41.820;23.490;2023-09-12T17:00:52;90242.94;;;20.05;39.41
10366;BME280;5229;41.820;23.490;2023-09-12T17:03:19;90241.72;;;19.99;39.59
10366;BME280;5229;41.820;23.490;2023-09-12T17:05:46;90249.59;;;19.95;39.34
10366;BME280;5229;41.820;23.490;2023-09-12T17:08:14;90255.59;;;19.96;39.75
10366;BME280;5229;41.820;23.490;2023-09-12T17:10:41;90253.63;;;19.89;40.03
10366;BME280;5229;41.820;23.490;2023-09-12T17:13:08;90259.41;;;19.76;40.28
10366;BME280;5229;41.820;23.490;2023-09-12T17:15:37;90264.16;;;19.67;40.52
10366;BME280;5229;41.820;23.490;2023-09-12T17:18:04;90266.66;;;19.60;40.49
10366;BME280;5229;41.820;23.490;2023-09-12T17:20:31;90274.44;;;19.53;40.67
10366;BME280;5229;41.820;23.490;2023-09-12T17:22:58;90273.19;;;19.47;40.90
10366;BME280;5229;41.820;23.490;2023-09-12T17:25:26;90277.25;;;19.41;40.90
10366;BME280;5229;41.820;23.490;2023-09-12T17:27:53;90276.75;;;19.35;40.71
10366;BME280;5229;41.820;23.490;2023-09-12T17:30:19;90285.00;;;19.34;40.95
10366;BME280;5229;41.820;23.490;2023-09-12T17:32:47;90290.59;;;19.32;40.75
10366;BME280;5229;41.820;23.490;2023-09-12T17:35:14;90299.63;;;19.31;40.96
10366;BME280;5229;41.820;23.490;2023-09-12T17:37:40;90281.53;;;19.11;41.22
10366;BME280;5229;41.820;23.490;2023-09-12T17:40:08;90300.06;;;19.18;41.26
10366;BME280;5229;41.820;23.490;2023-09-12T17:42:37;90304.50;;;19.14;41.26
10366;BME280;5229;41.820;23.490;2023-09-12T17:45:05;90305.19;;;19.11;41.32
10366;BME280;5229;41.820;23.490;2023-09-12T17:47:32;90310.03;;;19.09;41.30
10366;BME280;5229;41.820;23.490;2023-09-12T17:50:00;90307.28;;;19.02;41.46
10366;BME280;5229;41.820;23.490;2023-09-12T17:52:27;90307.97;;;18.99;41.25
10366;BME280;5229;41.820;23.490;2023-09-12T17:54:53;90311.28;;;18.96;41.58
10366;BME280;5229;41.820;23.490;2023-09-12T17:57:20;90320.53;;;18.90;41.60
10366;BME280;5229;41.820;23.490;2023-09-12T17:59:48;90323.34;;;18.81;41.94
10366;BME280;5229;41.820;23.490;2023-09-12T18:02:16;90327.38;;;18.75;42.05
10366;BME280;5229;41.820;23.490;2023-09-12T18:04:43;90333.66;;;18.71;41.85
10366;BME280;5229;41.820;23.490;2023-09-12T18:07:10;90340.38;;;18.68;41.86
10366;BME280;5229;41.820;23.490;2023-09-12T18:09:36;90333.91;;;18.66;42.08
10366;BME280;5229;41.820;23.490;2023-09-12T18:12:03;90344.34;;;18.62;42.19
10366;BME280;5229;41.820;23.490;2023-09-12T18:14:30;90348.00;;;18.58;42.12
10366;BME280;5229;41.820;23.490;2023-09-12T18:16:59;90345.56;;;18.49;42.30
10366;BME280;5229;41.820;23.490;2023-09-12T18:19:27;90353.28;;;18.42;42.31
10366;BME280;5229;41.820;23.490;2023-09-12T18:21:54;90350.06;;;18.33;42.30
10366;BME280;5229;41.820;23.490;2023-09-12T18:24:21;90347.63;;;18.25;42.34
10366;BME280;5229;41.820;23.490;2023-09-12T18:26:48;90347.44;;;18.18;42.83
10366;BME280;5229;41.820;23.490;2023-09-12T18:29:15;90344.91;;;18.06;42.95
10366;BME280;5229;41.820;23.490;2023-09-12T18:31:42;90351.25;;;18.05;42.76
10366;BME280;5229;41.820;23.490;2023-09-12T18:34:10;90348.13;;;17.99;43.05
10366;BME280;5229;41.820;23.490;2023-09-12T18:36:37;90351.34;;;17.93;42.97
10366;BME280;5229;41.820;23.490;2023-09-12T18:39:04;90355.06;;;17.92;42.77
10366;BME280;5229;41.820;23.490;2023-09-12T18:41:32;90354.66;;;17.90;43.09
10366;BME280;5229;41.820;23.490;2023-09-12T18:43:59;90358.38;;;17.89;43.15
10366;BME280;5229;41.820;23.490;2023-09-12T18:46:27;90357.53;;;17.85;43.09
10366;BME280;5229;41.820;23.490;2023-09-12T18:48:54;90359.28;;;17.81;43.18
10366;BME280;5229;41.820;23.490;2023-09-12T18:51:22;90358.88;;;17.79;43.45
10366;BME280;5229;41.820;23.490;2023-09-12T18:53:49;90359.09;;;17.74;43.52
10366;BME280;5229;41.820;23.490;2023-09-12T18:56:15;90361.53;;;17.67;43.78
10366;BME280;5229;41.820;23.490;2023-09-12T18:58:42;90356.13;;;17.60;44.38
10366;BME280;5229;41.820;23.490;2023-09-12T19:01:10;90367.97;;;17.54;44.14
10366;BME280;5229;41.820;23.490;2023-09-12T19:03:37;90364.06;;;17.48;44.20
10366;BME280;5229;41.820;23.490;2023-09-12T19:06:05;90371.06;;;17.43;44.66
10366;BME280;5229;41.820;23.490;2023-09-12T19:08:34;90373.69;;;17.43;44.82
10366;BME280;5229;41.820;23.490;2023-09-12T19:11:03;90363.41;;;17.38;44.66
10366;BME280;5229;41.820;23.490;2023-09-12T19:13:29;90367.78;;;17.34;44.85
10366;BME280;5229;41.820;23.490;2023-09-12T19:15:57;90375.31;;;17.36;44.64
10366;BME280;5229;41.820;23.490;2023-09-12T19:18:24;90387.25;;;17.33;44.82
10366;BME280;5229;41.820;23.490;2023-09-12T19:20:51;90382.66;;;17.30;44.62
10366;BME280;5229;41.820;23.490;2023-09-12T19:23:18;90381.47;;;17.28;44.70
10366;BME280;5229;41.820;23.490;2023-09-12T19:25:46;90372.00;;;17.23;44.81
10366;BME280;5229;41.820;23.490;2023-09-12T19:28:14;90382.66;;;17.30;44.67
10366;BME280;5229;41.820;23.490;2023-09-12T19:30:41;90336.41;;;16.95;45.01
10366;BME280;5229;41.820;23.490;2023-09-12T19:33:08;90388.50;;;17.24;45.19
10366;BME280;5229;41.820;23.490;2023-09-12T19:35:35;90386.09;;;17.19;45.37
10366;BME280;5229;41.820;23.490;2023-09-12T19:38:03;90381.75;;;17.11;45.87
10366;BME280;5229;41.820;23.490;2023-09-12T19:40:30;90387.53;;;17.16;45.65
10366;BME280;5229;41.820;23.490;2023-09-12T19:42:59;90384.91;;;17.16;46.24
10366;BME280;5229;41.820;23.490;2023-09-12T19:45:26;90387.53;;;17.16;46.28
10366;BME280;5229;41.820;23.490;2023-09-12T19:47:53;90391.81;;;17.09;46.79
10366;BME280;5229;41.820;23.490;2023-09-12T19:50:19;90392.38;;;17.02;47.01
10366;BME280;5229;41.820;23.490;2023-09-12T19:52:47;90395.88;;;16.94;46.74
10366;BME280;5229;41.820;23.490;2023-09-12T19:55:14;90392.63;;;16.85;47.12
10366;BME280;5229;41.820;23.490;2023-09-12T19:57:40;90390.16;;;16.77;47.52
10366;BME280;5229;41.820;23.490;2023-09-12T20:00:13;90393.75;;;16.72;47.98
10366;BME280;5229;41.820;23.490;2023-09-12T20:02:40;90393.97;;;16.67;48.09
10366;BME280;5229;41.820;23.490;2023-09-12T20:05:09;90400.31;;;16.66;48.27
10366;BME280;5229;41.820;23.490;2023-09-12T20:07:36;90397.28;;;16.64;48.45
10366;BME280;5229;41.820;23.490;2023-09-12T20:10:03;90410.78;;;16.66;48.02
10366;BME280;5229;41.820;23.490;2023-09-12T20:12:30;90407.06;;;16.67;48.77
10366;BME280;5229;41.820;23.490;2023-09-12T20:14:56;90403.69;;;16.67;48.86
10366;BME280;5229;41.820;23.490;2023-09-12T20:17:25;90410.38;;;16.64;48.50
10366;BME280;5229;41.820;23.490;2023-09-12T20:19:52;90414.94;;;16.55;49.27
10366;BME280;5229;41.820;23.490;2023-09-12T20:22:19;90407.09;;;16.43;49.53
10366;BME280;5229;41.820;23.490;2023-09-12T20:24:46;90411.19;;;16.32;49.57
10366;BME280;5229;41.820;23.490;2023-09-12T20:27:13;90413.25;;;16.27;49.63
10366;BME280;5229;41.820;23.490;2023-09-12T20:29:40;90418.94;;;16.17;49.90
10366;BME280;5229;41.820;23.490;2023-09-12T20:32:06;90417.31;;;16.12;50.28
10366;BME280;5229;41.820;23.490;2023-09-12T20:34:34;90416.75;;;16.07;50.54
10366;BME280;5229;41.820;23.490;2023-09-12T20:37:01;90420.97;;;15.99;50.50
10366;BME280;5229;41.820;23.490;2023-09-12T20:39:29;90421.06;;;15.91;50.89
10366;BME280;5229;41.820;23.490;2023-09-12T20:41:58;90418.22;;;15.84;51.33
10366;BME280;5229;41.820;23.490;2023-09-12T20:44:25;90413.72;;;15.72;51.29
10366;BME280;5229;41.820;23.490;2023-09-12T20:46:52;90420.38;;;15.70;51.58
10366;BME280;5229;41.820;23.490;2023-09-12T20:49:18;90423.53;;;15.63;51.97
10366;BME280;5229;41.820;23.490;2023-09-12T20:51:47;90426.34;;;15.58;51.80
10366;BME280;5229;41.820;23.490;2023-09-12T20:54:15;90426.53;;;15.53;51.95
10366;BME280;5229;41.820;23.490;2023-09-12T20:56:43;90423.81;;;15.50;51.96
10366;BME280;5229;41.820;23.490;2023-09-12T20:59:11;90418.13;;;15.48;52.08
10366;BME280;5229;41.820;23.490;2023-09-12T21:01:37;90425.53;;;15.46;52.61
10366;BME280;5229;41.820;23.490;2023-09-12T21:04:05;90419.56;;;15.45;52.40
10366;BME280;5229;41.820;23.490;2023-09-12T21:06:32;90426.84;;;15.40;52.54
10366;BME280;5229;41.820;23.490;2023-09-12T21:09:00;90426.22;;;15.34;53.27
10366;BME280;5229;41.820;23.490;2023-09-12T21:11:28;90427.06;;;15.26;52.92
10366;BME280;5229;41.820;23.490;2023-09-12T21:13:54;90429.25;;;15.24;53.25
10366;BME280;5229;41.820;23.490;2023-09-12T21:16:21;90422.66;;;15.18;53.07
10366;BME280;5229;41.820;23.490;2023-09-12T21:18:48;90431.13;;;15.15;53.46
10366;BME280;5229;41.820;23.490;2023-09-12T21:21:15;90421.31;;;15.12;53.11
10366;BME280;5229;41.820;23.490;2023-09-12T21:23:41;90424.59;;;15.09;53.44
10366;BME280;5229;41.820;23.490;2023-09-12T21:26:09;90428.28;;;15.08;53.52
10366;BME280;5229;41.820;23.490;2023-09-12T21:28:36;90426.97;;;15.02;53.66
10366;BME280;5229;41.820;23.490;2023-09-12T21:31:04;90429.88;;;15.01;53.52
10366;BME280;5229;41.820;23.490;2023-09-12T21:33:31;90438.03;;;14.99;53.69
10366;BME280;5229;41.820;23.490;2023-09-12T21:35:57;90436.84;;;14.97;53.74
10366;BME280;5229;41.820;23.490;2023-09-12T21:38:25;90435.91;;;14.93;54.01
10366;BME280;5229;41.820;23.490;2023-09-12T21:40:52;90436.25;;;14.91;53.86
10366;BME280;5229;41.820;23.490;2023-09-12T21:43:20;90442.13;;;14.88;54.10
10366;BME280;5229;41.820;23.490;2023-09-12T21:45:46;90437.84;;;14.84;54.14
10366;BME280;5229;41.820;23.490;2023-09-12T21:48:15;90445.66;;;14.84;54.22
10366;BME280;5229;41.820;23.490;2023-09-12T21:50:42;90444.91;;;14.83;54.23
10366;BME280;5229;41.820;23.490;2023-09-12T21:53:09;90442.16;;;14.80;54.37
10366;BME280;5229;41.820;23.490;2023-09-12T21:55:36;90446.63;;;14.79;54.18
10366;BME280;5229;41.820;23.490;2023-09-12T21:58:04;90450.75;;;14.80;54.31
10366;BME280;5229;41.820;23.490;2023-09-12T22:00:32;90445.09;;;14.78;54.32
10366;BME280;5229;41.820;23.490;2023-09-12T22:02:59;90444.38;;;14.69;54.42
10366;BME280;5229;41.820;23.490;2023-09-12T22:05:27;90446.09;;;14.65;54.73
10366;BME280;5229;41.820;23.490;2023-09-12T22:07:54;90445.19;;;14.61;54.76
10366;BME280;5229;41.820;23.490;2023-09-12T22:10:21;90449.06;;;14.55;54.81
10366;BME280;5229;41.820;23.490;2023-09-12T22:12:47;90438.81;;;14.50;55.02
10366;BME280;5229;41.820;23.490;2023-09-12T22:15:14;90441.63;;;14.45;54.92
10366;BME280;5229;41.820;23.490;2023-09-12T22:17:43;90451.13;;;14.41;55.06
10366;BME280;5229;41.820;23.490;2023-09-12T22:20:11;90447.63;;;14.37;55.24
10366;BME280;5229;41.820;23.490;2023-09-12T22:22:41;90442.59;;;14.32;55.12
10366;BME280;5229;41.820;23.490;2023-09-12T22:25:09;90442.13;;;14.30;55.11
10366;BME280;5229;41.820;23.490;2023-09-12T22:27:36;90437.69;;;14.30;55.42
10366;BME280;5229;41.820;23.490;2023-09-12T22:30:04;90431.06;;;14.33;55.35
10366;BME280;5229;41.820;23.490;2023-09-12T22:32:31;90432.78;;;14.29;55.16
10366;BME280;5229;41.820;23.490;2023-09-12T22:34:59;90429.72;;;14.27;55.39
10366;BME280;5229;41.820;23.490;2023-09-12T22:37:26;90421.13;;;14.26;55.30
10366;BME280;5229;41.820;23.490;2023-09-12T22:39:52;90432.97;;;14.24;55.38
10366;BME280;5229;41.820;23.490;2023-09-12T22:42:19;90429.91;;;14.22;55.42
10366;BME280;5229;41.820;23.490;2023-09-12T22:44:47;90436.78;;;14.18;55.52
10366;BME280;5229;41.820;23.490;2023-09-12T22:47:14;90439.25;;;14.14;55.46
10366;BME280;5229;41.820;23.490;2023-09-12T22:49:41;90435.44;;;14.12;55.70
10366;BME280;5229;41.820;23.490;2023-09-12T22:52:09;90433.00;;;14.07;55.98
10366;BME280;5229;41.820;23.490;2023-09-12T22:54:36;90429.50;;;14.03;55.75
10366;BME280;5229;41.820;23.490;2023-09-12T22:57:03;90434.25;;;14.01;56.00
10366;BME280;5229;41.820;23.490;2023-09-12T22:59:30;90431.63;;;14.01;55.92
10366;BME280;5229;41.820;23.490;2023-09-12T23:01:57;90429.94;;;14.05;56.38
10366;BME280;5229;41.820;23.490;2023-09-12T23:04:24;90435.16;;;14.05;55.89
10366;BME280;5229;41.820;23.490;2023-09-12T23:06:51;90434.41;;;14.04;56.09
10366;BME280;5229;41.820;23.490;2023-09-12T23:09:19;90439.00;;;13.99;55.90
10366;BME280;5229;41.820;23.490;2023-09-12T23:11:46;90433.34;;;13.97;56.30
10366;BME280;5229;41.820;23.490;2023-09-12T23:14:13;90430.28;;;13.95;56.50
10366;BME280;5229;41.820;23.490;2023-09-12T23:16:40;90421.72;;;13.86;56.23
10366;BME280;5229;41.820;23.490;2023-09-12T23:19:07;90424.16;;;13.91;56.52
10366;BME280;5229;41.820;23.490;2023-09-12T23:21:34;90414.34;;;13.88;56.59
10366;BME280;5229;41.820;23.490;2023-09-12T23:24:00;90424.66;;;13.84;56.75
10366;BME280;5229;41.820;23.490;2023-09-12T23:26:29;90423.44;;;13.82;56.73
10366;BME280;5229;41.820;23.490;2023-09-12T23:28:56;90422.06;;;13.76;56.88
10366;BME280;5229;41.820;23.490;2023-09-12T23:31:23;90421.16;;;13.72;57.05
10366;BME280;5229;41.820;23.490;2023-09-12T23:33:50;90423.31;;;13.70;57.61
10366;BME280;5229;41.820;23.490;2023-09-12T23:36:17;90419.47;;;13.67;57.27
10366;BME280;5229;41.820;23.490;2023-09-12T23:38:45;90422.72;;;13.64;57.90
10366;BME280;5229;41.820;23.490;2023-09-12T23:41:12;90425.94;;;13.61;57.75
10366;BME280;5229;41.820;23.490;2023-09-12T23:43:40;90418.88;;;13.62;58.26
10366;BME280;5229;41.820;23.490;2023-09-12T23:46:07;90420.59;;;13.58;58.02
10366;BME280;5229;41.820;23.490;2023-09-12T23:48:34;90419.81;;;13.57;58.12
10366;BME280;5229;41.820;23.490;2023-09-12T23:51:00;90420.59;;;13.58;57.74
10366;BME280;5229;41.820;23.490;2023-09-12T23:53:27;90422.72;;;13.56;58.51
10366;BME280;5229;41.820;23.490;2023-09-12T23:55:58;90418.91;;;13.53;57.94
10366;BME280;5229;41.820;23.490;2023-09-12T23:58:25;90421.81;;;13.52;58.15
